sensor_id;sensor_type;location;lat;lon;timestamp;pressure;altitude;pressure_sealevel;temperature;humidity
53900;BME280;40509;32.858;-116.858;2023-04-25T00:00:08;97607.34;;;23.29;45.56
53900;BME280;40509;32.858;-116.858;2023-04-25T00:02:39;97609.81;;;23.30;45.24
53900;BME280;40509;32.858;-116.858;2023-04-25T00:05:07;97601.91;;;23.30;45.49
53900;BME280;40509;32.858;-116.858;2023-04-25T00:07:34;97603.72;;;23.30;45.18
53900;BME280;40509;32.858;-116.858;2023-04-25T00:10:02;97608.81;;;23.31;45.62
53900;BME280;40509;32.858;-116.858;2023-04-25T00:12:30;97616.56;;;23.33;45.31
53900;BME280;40509;32.858;-116.858;2023-04-25T00:14:57;97619.19;;;23.33;45.36
53900;BME280;40509;32.858;-116.858;2023-04-25T00:17:25;97613.75;;;23.34;45.73
53900;BME280;40509;32.858;-116.858;2023-04-25T00:19:53;97613.75;;;23.34;45.67
53900;BME280;40509;32.858;-116.858;2023-04-25T00:22:21;97616.56;;;23.33;45.33
53900;BME280;40509;32.858;-116.858;2023-04-25T00:24:48;97615.41;;;23.35;45.38
53900;BME280;40509;32.858;-116.858;2023-04-25T00:27:15;97614.59;;;23.35;45.71
53900;BME280;40509;32.858;-116.858;2023-04-25T00:29:43;97619.53;;;23.30;45.72
53900;BME280;40509;32.858;-116.858;2023-04-25T00:32:10;97622.97;;;23.30;45.62
53900;BME280;40509;32.858;-116.858;2023-04-25T00:34:37;97616.72;;;23.31;45.58
53900;BME280;40509;32.858;-116.858;2023-04-25T00:37:05;97618.19;;;23.34;45.57
53900;BME280;40509;32.858;-116.858;2023-04-25T00:39:32;97628.38;;;23.37;45.98
53900;BME280;40509;32.858;-116.858;2023-04-25T00:42:00;97627.75;;;23.35;45.71
53900;BME280;40509;32.858;-116.858;2023-04-25T00:44:30;97631.38;;;23.34;46.37
53900;BME280;40509;32.858;-116.858;2023-04-25T00:47:00;97631.72;;;23.31;46.46
53900;BME280;40509;32.858;-116.858;2023-04-25T00:49:29;97623.78;;;23.39;46.06
53900;BME280;40509;32.858;-116.858;2023-04-25T00:51:56;97625.28;;;23.33;45.86
53900;BME280;40509;32.858;-116.858;2023-04-25T00:54:24;97624.94;;;23.36;45.78
53900;BME280;40509;32.858;-116.858;2023-04-25T01:00:19;97619.16;;;23.41;46.27
53900;BME280;40509;32.858;-116.858;2023-04-25T01:02:48;97622.94;;;23.38;46.13
53900;BME280;40509;32.858;-116.858;2023-04-25T01:05:16;97632.84;;;23.36;46.58
53900;BME280;40509;32.858;-116.858;2023-04-25T01:07:45;97625.00;;;22.95;46.00
53900;BME280;40509;32.858;-116.858;2023-04-25T01:10:13;97622.59;;;22.69;47.08
53900;BME280;40509;32.858;-116.858;2023-04-25T01:12:41;97627.84;;;22.69;47.31
53900;BME280;40509;32.858;-116.858;2023-04-25T01:15:09;97627.88;;;22.61;47.65
53900;BME280;40509;32.858;-116.858;2023-04-25T01:17:36;97625.88;;;22.46;47.47
53900;BME280;40509;32.858;-116.858;2023-04-25T01:20:05;97631.81;;;22.48;47.56
53900;BME280;40509;32.858;-116.858;2023-04-25T01:22:33;97632.06;;;22.04;48.33
53900;BME280;40509;32.858;-116.858;2023-04-25T01:25:00;97634.22;;;22.17;47.96
53900;BME280;40509;32.858;-116.858;2023-04-25T01:27:29;97635.66;;;22.03;48.25
53900;BME280;40509;32.858;-116.858;2023-04-25T01:29:57;97633.38;;;22.08;48.19
53900;BME280;40509;32.858;-116.858;2023-04-25T01:32:25;97637.31;;;22.04;48.27
53900;BME280;40509;32.858;-116.858;2023-04-25T01:34:55;97636.81;;;21.92;48.63
53900;BME280;40509;32.858;-116.858;2023-04-25T01:37:22;97639.59;;;21.99;48.69
53900;BME280;40509;32.858;-116.858;2023-04-25T01:39:50;97633.19;;;22.01;48.01
53900;BME280;40509;32.858;-116.858;2023-04-25T01:42:18;97637.13;;;21.89;48.54
53900;BME280;40509;32.858;-116.858;2023-04-25T01:44:45;97638.25;;;21.78;48.81
53900;BME280;40509;32.858;-116.858;2023-04-25T01:47:12;97638.06;;;21.80;48.94
53900;BME280;40509;32.858;-116.858;2023-04-25T01:49:40;97637.25;;;21.79;48.90
53900;BME280;40509;32.858;-116.858;2023-04-25T01:52:07;97644.16;;;21.80;48.91
53900;BME280;40509;32.858;-116.858;2023-04-25T01:54:35;97644.56;;;22.02;48.36
53900;BME280;40509;32.858;-116.858;2023-04-25T01:57:02;97647.16;;;21.85;48.65
53900;BME280;40509;32.858;-116.858;2023-04-25T01:59:32;97641.75;;;22.03;48.17
53900;BME280;40509;32.858;-116.858;2023-04-25T02:02:08;97634.00;;;21.85;48.67
53900;BME280;40509;32.858;-116.858;2023-04-25T02:04:36;97641.53;;;21.72;48.95
53900;BME280;40509;32.858;-116.858;2023-04-25T02:07:04;97646.63;;;21.82;48.65
53900;BME280;40509;32.858;-116.858;2023-04-25T02:09:44;97641.19;;;21.75;48.81
53900;BME280;40509;32.858;-116.858;2023-04-25T02:12:12;97644.00;;;21.73;48.81
53900;BME280;40509;32.858;-116.858;2023-04-25T02:15:00;97641.63;;;21.62;49.14
53900;BME280;40509;32.858;-116.858;2023-04-25T02:17:47;97647.38;;;21.58;49.28
53900;BME280;40509;32.858;-116.858;2023-04-25T02:20:15;97644.25;;;21.62;49.13
53900;BME280;40509;32.858;-116.858;2023-04-25T02:22:47;97641.94;;;21.59;49.28
53900;BME280;40509;32.858;-116.858;2023-04-25T02:25:14;97641.34;;;21.65;48.92
53900;BME280;40509;32.858;-116.858;2023-04-25T02:27:43;97641.16;;;21.67;48.88
53900;BME280;40509;32.858;-116.858;2023-04-25T02:30:10;97634.34;;;21.48;49.50
53900;BME280;40509;32.858;-116.858;2023-04-25T02:32:38;97632.78;;;21.71;48.72
53900;BME280;40509;32.858;-116.858;2023-04-25T02:35:06;97636.28;;;21.72;48.59
53900;BME280;40509;32.858;-116.858;2023-04-25T02:37:34;97638.38;;;21.68;48.96
53900;BME280;40509;32.858;-116.858;2023-04-25T02:40:02;97645.28;;;21.69;49.23
53900;BME280;40509;32.858;-116.858;2023-04-25T02:42:31;97640.16;;;21.60;48.93
53900;BME280;40509;32.858;-116.858;2023-04-25T02:44:59;97648.88;;;21.68;48.91
53900;BME280;40509;32.858;-116.858;2023-04-25T02:47:27;97639.75;;;21.97;48.37
53900;BME280;40509;32.858;-116.858;2023-04-25T02:49:54;97644.59;;;22.18;48.01
53900;BME280;40509;32.858;-116.858;2023-04-25T02:52:21;97645.22;;;22.29;47.63
53900;BME280;40509;32.858;-116.858;2023-04-25T02:54:56;97637.22;;;22.30;47.98
53900;BME280;40509;32.858;-116.858;2023-04-25T02:57:24;97647.94;;;22.37;47.51
53900;BME280;40509;32.858;-116.858;2023-04-25T02:59:51;97650.19;;;22.32;47.55
53900;BME280;40509;32.858;-116.858;2023-04-25T03:02:19;97653.78;;;22.31;47.56
53900;BME280;40509;32.858;-116.858;2023-04-25T03:04:46;97657.09;;;22.33;47.72
53900;BME280;40509;32.858;-116.858;2023-04-25T03:07:14;97660.41;;;22.35;47.50
53900;BME280;40509;32.858;-116.858;2023-04-25T03:09:41;97658.44;;;22.37;47.46
53900;BME280;40509;32.858;-116.858;2023-04-25T03:12:09;97658.44;;;22.45;47.99
53900;BME280;40509;32.858;-116.858;2023-04-25T03:14:36;97655.50;;;22.48;47.60
53900;BME280;40509;32.858;-116.858;2023-04-25T03:17:05;97669.06;;;22.27;47.98
53900;BME280;40509;32.858;-116.858;2023-04-25T03:19:35;97670.38;;;22.23;48.02
53900;BME280;40509;32.858;-116.858;2023-04-25T03:22:02;97676.47;;;22.32;47.74
53900;BME280;40509;32.858;-116.858;2023-04-25T03:24:30;97673.50;;;22.27;48.00
53900;BME280;40509;32.858;-116.858;2023-04-25T03:26:58;97676.78;;;22.29;48.02
53900;BME280;40509;32.858;-116.858;2023-04-25T03:29:26;97684.22;;;22.33;48.01
53900;BME280;40509;32.858;-116.858;2023-04-25T03:31:56;97678.13;;;22.33;47.86
53900;BME280;40509;32.858;-116.858;2023-04-25T03:34:23;97679.28;;;22.30;48.25
53900;BME280;40509;32.858;-116.858;2023-04-25T03:36:50;97681.75;;;22.32;48.21
53900;BME280;40509;32.858;-116.858;2023-04-25T03:43:10;97703.16;;;22.37;47.90
53900;BME280;40509;32.858;-116.858;2023-04-25T03:45:41;97701.34;;;22.37;48.20
53900;BME280;40509;32.858;-116.858;2023-04-25T03:48:08;97702.50;;;22.51;48.24
53900;BME280;40509;32.858;-116.858;2023-04-25T03:50:36;97710.22;;;22.53;48.64
53900;BME280;40509;32.858;-116.858;2023-04-25T03:53:03;97709.41;;;22.52;48.57
53900;BME280;40509;32.858;-116.858;2023-04-25T03:55:40;97714.34;;;22.47;49.14
53900;BME280;40509;32.858;-116.858;2023-04-25T03:58:09;97711.69;;;22.47;49.00
53900;BME280;40509;32.858;-116.858;2023-04-25T04:03:03;97736.50;;;22.45;48.90
53900;BME280;40509;32.858;-116.858;2023-04-25T04:05:31;97741.31;;;22.49;49.01
53900;BME280;40509;32.858;-116.858;2023-04-25T04:07:59;97737.19;;;22.47;49.65
53900;BME280;40509;32.858;-116.858;2023-04-25T04:10:27;97730.13;;;22.64;48.70
53900;BME280;40509;32.858;-116.858;2023-04-25T04:12:55;97738.19;;;22.62;49.07
53900;BME280;40509;32.858;-116.858;2023-04-25T04:15:23;97744.13;;;22.56;49.10
53900;BME280;40509;32.858;-116.858;2023-04-25T04:17:50;97739.66;;;22.56;49.51
53900;BME280;40509;32.858;-116.858;2023-04-25T04:20:19;97747.56;;;22.56;49.58
53900;BME280;40509;32.858;-116.858;2023-04-25T04:22:47;97748.53;;;22.64;48.78
53900;BME280;40509;32.858;-116.858;2023-04-25T04:25:16;97755.44;;;22.56;49.41
53900;BME280;40509;32.858;-116.858;2023-04-25T04:28:06;97765.97;;;22.48;49.84
53900;BME280;40509;32.858;-116.858;2023-04-25T04:30:43;97757.25;;;22.48;49.84
53900;BME280;40509;32.858;-116.858;2023-04-25T04:33:14;97758.09;;;22.56;49.79
53900;BME280;40509;32.858;-116.858;2023-04-25T04:35:43;97763.34;;;22.56;49.32
53900;BME280;40509;32.858;-116.858;2023-04-25T04:38:11;97766.94;;;22.55;49.45
53900;BME280;40509;32.858;-116.858;2023-04-25T04:40:38;97768.94;;;22.53;49.42
53900;BME280;40509;32.858;-116.858;2023-04-25T04:43:32;97769.75;;;22.62;48.58
53900;BME280;40509;32.858;-116.858;2023-04-25T04:46:03;97770.41;;;22.56;49.00
53900;BME280;40509;32.858;-116.858;2023-04-25T04:48:51;97773.06;;;22.64;49.19
53900;BME280;40509;32.858;-116.858;2023-04-25T04:51:39;97771.06;;;22.58;50.01
53900;BME280;40509;32.858;-116.858;2023-04-25T04:54:26;97771.56;;;22.62;49.76
53900;BME280;40509;32.858;-116.858;2023-04-25T04:57:12;97777.47;;;22.55;49.30
53900;BME280;40509;32.858;-116.858;2023-04-25T05:00:15;97782.25;;;22.52;49.95
53900;BME280;40509;32.858;-116.858;2023-04-25T05:03:05;97780.59;;;22.51;49.78
53900;BME280;40509;32.858;-116.858;2023-04-25T05:05:48;97780.59;;;22.51;49.96
53900;BME280;40509;32.858;-116.858;2023-04-25T05:08:31;97780.59;;;22.51;49.82
53900;BME280;40509;32.858;-116.858;2023-04-25T05:11:24;97777.47;;;22.47;49.91
53900;BME280;40509;32.858;-116.858;2023-04-25T05:13:57;97779.75;;;22.50;49.85
53900;BME280;40509;32.858;-116.858;2023-04-25T05:16:43;97781.75;;;22.48;50.08
53900;BME280;40509;32.858;-116.858;2023-04-25T05:19:19;97780.09;;;22.47;50.21
53900;BME280;40509;32.858;-116.858;2023-04-25T05:21:52;97787.16;;;22.47;50.05
53900;BME280;40509;32.858;-116.858;2023-04-25T05:24:43;97788.66;;;22.49;49.91
53900;BME280;40509;32.858;-116.858;2023-04-25T05:27:33;97787.00;;;22.48;49.95
53900;BME280;40509;32.858;-116.858;2023-04-25T05:30:15;97786.66;;;22.51;49.95
53900;BME280;40509;32.858;-116.858;2023-04-25T05:33:05;97793.25;;;22.55;49.36
53900;BME280;40509;32.858;-116.858;2023-04-25T05:35:33;97786.84;;;22.58;48.76
53900;BME280;40509;32.858;-116.858;2023-04-25T05:38:01;97788.66;;;22.58;49.34
53900;BME280;40509;32.858;-116.858;2023-04-25T05:40:48;97786.22;;;22.56;48.97
53900;BME280;40509;32.858;-116.858;2023-04-25T05:43:33;97782.44;;;22.67;49.40
53900;BME280;40509;32.858;-116.858;2023-04-25T05:46:23;97785.88;;;22.59;49.16
53900;BME280;40509;32.858;-116.858;2023-04-25T05:49:21;97779.63;;;22.52;49.16
53900;BME280;40509;32.858;-116.858;2023-04-25T05:52:01;97783.06;;;22.61;48.74
53900;BME280;40509;32.858;-116.858;2023-04-25T05:54:58;97781.25;;;22.61;48.70
53900;BME280;40509;32.858;-116.858;2023-04-25T05:57:26;97776.69;;;22.63;48.48
53900;BME280;40509;32.858;-116.858;2023-04-25T05:59:56;97772.06;;;22.65;48.29
53900;BME280;40509;32.858;-116.858;2023-04-25T06:02:39;97777.16;;;22.59;48.87
53900;BME280;40509;32.858;-116.858;2023-04-25T06:05:13;97768.09;;;22.53;49.31
53900;BME280;40509;32.858;-116.858;2023-04-25T06:07:41;97760.03;;;22.54;49.11
53900;BME280;40509;32.858;-116.858;2023-04-25T06:10:08;97765.47;;;22.61;48.73
53900;BME280;40509;32.858;-116.858;2023-04-25T06:12:36;97759.22;;;22.54;49.24
53900;BME280;40509;32.858;-116.858;2023-04-25T06:15:06;97759.56;;;22.51;49.08
53900;BME280;40509;32.858;-116.858;2023-04-25T06:17:33;97752.31;;;22.53;49.16
53900;BME280;40509;32.858;-116.858;2023-04-25T06:20:02;97748.53;;;22.55;48.62
53900;BME280;40509;32.858;-116.858;2023-04-25T06:22:30;97751.00;;;22.57;48.61
53900;BME280;40509;32.858;-116.858;2023-04-25T06:24:58;97742.94;;;22.50;48.74
53900;BME280;40509;32.858;-116.858;2023-04-25T06:27:29;97761.69;;;22.55;48.59
53900;BME280;40509;32.858;-116.858;2023-04-25T06:29:56;97754.78;;;22.54;48.54
53900;BME280;40509;32.858;-116.858;2023-04-25T06:32:23;97754.75;;;22.46;49.01
53900;BME280;40509;32.858;-116.858;2023-04-25T06:37:17;97763.81;;;22.44;48.96
53900;BME280;40509;32.858;-116.858;2023-04-25T06:39:45;97768.56;;;22.40;49.20
53900;BME280;40509;32.858;-116.858;2023-04-25T06:42:12;97762.00;;;22.36;49.17
53900;BME280;40509;32.858;-116.858;2023-04-25T06:44:46;97765.59;;;22.35;49.20
53900;BME280;40509;32.858;-116.858;2023-04-25T06:47:14;97760.34;;;22.35;49.31
53900;BME280;40509;32.858;-116.858;2023-04-25T06:49:44;97755.88;;;22.35;49.13
53900;BME280;40509;32.858;-116.858;2023-04-25T06:52:11;97757.72;;;22.35;49.24
53900;BME280;40509;32.858;-116.858;2023-04-25T06:54:39;97755.38;;;22.32;49.27
53900;BME280;40509;32.858;-116.858;2023-04-25T06:57:23;97763.91;;;22.34;49.11
53900;BME280;40509;32.858;-116.858;2023-04-25T06:59:50;97764.06;;;22.32;49.18
53900;BME280;40509;32.858;-116.858;2023-04-25T07:02:18;97770.69;;;22.36;48.99
53900;BME280;40509;32.858;-116.858;2023-04-25T07:04:45;97770.53;;;22.38;48.71
53900;BME280;40509;32.858;-116.858;2023-04-25T07:07:13;97766.09;;;22.38;48.51
53900;BME280;40509;32.858;-116.858;2023-04-25T07:09:47;97767.72;;;22.39;48.45
53900;BME280;40509;32.858;-116.858;2023-04-25T07:12:15;97757.72;;;22.35;48.76
53900;BME280;40509;32.858;-116.858;2023-04-25T07:14:43;97760.84;;;22.38;48.61
53900;BME280;40509;32.858;-116.858;2023-04-25T07:17:11;97763.09;;;22.33;48.63
53900;BME280;40509;32.858;-116.858;2023-04-25T07:19:39;97756.72;;;22.36;48.49
53900;BME280;40509;32.858;-116.858;2023-04-25T07:22:07;97758.16;;;22.30;48.52
53900;BME280;40509;32.858;-116.858;2023-04-25T07:24:36;97750.28;;;22.30;48.60
53900;BME280;40509;32.858;-116.858;2023-04-25T07:27:05;97752.44;;;22.35;48.36
53900;BME280;40509;32.858;-116.858;2023-04-25T07:29:55;97744.00;;;22.31;48.52
53900;BME280;40509;32.858;-116.858;2023-04-25T07:32:23;97741.25;;;22.33;48.21
53900;BME280;40509;32.858;-116.858;2023-04-25T07:34:50;97742.22;;;22.32;48.47
53900;BME280;40509;32.858;-116.858;2023-04-25T07:37:18;97732.84;;;22.29;48.25
53900;BME280;40509;32.858;-116.858;2023-04-25T07:40:01;97730.22;;;22.29;48.43
53900;BME280;40509;32.858;-116.858;2023-04-25T07:42:30;97734.63;;;22.29;47.99
53900;BME280;40509;32.858;-116.858;2023-04-25T07:44:58;97740.75;;;22.29;48.22
53900;BME280;40509;32.858;-116.858;2023-04-25T07:47:25;97738.72;;;22.23;48.53
53900;BME280;40509;32.858;-116.858;2023-04-25T07:49:53;97734.16;;;22.25;48.32
53900;BME280;40509;32.858;-116.858;2023-04-25T07:52:21;97730.84;;;22.23;48.22
53900;BME280;40509;32.858;-116.858;2023-04-25T07:54:53;97741.53;;;22.21;48.29
53900;BME280;40509;32.858;-116.858;2023-04-25T07:57:27;97737.25;;;22.20;48.17
53900;BME280;40509;32.858;-116.858;2023-04-25T07:59:56;97738.09;;;22.21;48.27
53900;BME280;40509;32.858;-116.858;2023-04-25T08:02:24;97737.56;;;22.17;48.29
53900;BME280;40509;32.858;-116.858;2023-04-25T08:04:55;97740.88;;;22.19;48.02
53900;BME280;40509;32.858;-116.858;2023-04-25T08:07:23;97738.41;;;22.18;48.05
53900;BME280;40509;32.858;-116.858;2023-04-25T08:09:54;97746.13;;;22.19;48.10
53900;BME280;40509;32.858;-116.858;2023-04-25T08:12:26;97744.50;;;22.18;48.04
53900;BME280;40509;32.858;-116.858;2023-04-25T08:14:53;97748.94;;;22.18;47.97
53900;BME280;40509;32.858;-116.858;2023-04-25T08:17:23;97743.16;;;22.14;48.03
53900;BME280;40509;32.858;-116.858;2023-04-25T08:19:50;97739.56;;;22.15;48.10
53900;BME280;40509;32.858;-116.858;2023-04-25T08:22:30;97731.50;;;22.17;47.90
53900;BME280;40509;32.858;-116.858;2023-04-25T08:25:14;97733.97;;;22.18;47.95
53900;BME280;40509;32.858;-116.858;2023-04-25T08:27:41;97737.06;;;22.14;47.81
53900;BME280;40509;32.858;-116.858;2023-04-25T08:30:10;97734.59;;;22.12;47.78
53900;BME280;40509;32.858;-116.858;2023-04-25T08:32:38;97734.59;;;22.12;47.93
53900;BME280;40509;32.858;-116.858;2023-04-25T08:35:25;97736.25;;;22.13;47.72
53900;BME280;40509;32.858;-116.858;2023-04-25T08:37:52;97725.72;;;22.13;47.84
53900;BME280;40509;32.858;-116.858;2023-04-25T08:40:22;97724.06;;;22.12;47.70
53900;BME280;40509;32.858;-116.858;2023-04-25T08:43:00;97717.50;;;22.08;47.94
53900;BME280;40509;32.858;-116.858;2023-04-25T08:45:31;97725.38;;;22.08;47.74
53900;BME280;40509;32.858;-116.858;2023-04-25T08:48:01;97713.91;;;22.09;47.81
53900;BME280;40509;32.858;-116.858;2023-04-25T08:50:29;97714.88;;;22.08;47.68
53900;BME280;40509;32.858;-116.858;2023-04-25T08:52:59;97708.63;;;22.09;47.80
53900;BME280;40509;32.858;-116.858;2023-04-25T08:55:28;97718.19;;;22.10;47.74
53900;BME280;40509;32.858;-116.858;2023-04-25T08:57:59;97710.75;;;22.05;47.72
53900;BME280;40509;32.858;-116.858;2023-04-25T09:00:27;97712.91;;;22.02;47.70
53900;BME280;40509;32.858;-116.858;2023-04-25T09:02:57;97705.97;;;22.01;47.83
53900;BME280;40509;32.858;-116.858;2023-04-25T09:05:28;97711.06;;;22.02;47.84
53900;BME280;40509;32.858;-116.858;2023-04-25T09:07:56;97710.91;;;22.04;47.79
53900;BME280;40509;32.858;-116.858;2023-04-25T09:10:25;97713.06;;;22.00;47.65
53900;BME280;40509;32.858;-116.858;2023-04-25T09:13:09;97712.56;;;22.05;47.50
53900;BME280;40509;32.858;-116.858;2023-04-25T09:15:58;97716.50;;;22.01;47.51
53900;BME280;40509;32.858;-116.858;2023-04-25T09:18:54;97711.41;;;21.99;47.59
53900;BME280;40509;32.858;-116.858;2023-04-25T09:21:22;97703.97;;;21.95;47.56
53900;BME280;40509;32.858;-116.858;2023-04-25T09:23:49;97701.88;;;21.98;47.73
53900;BME280;40509;32.858;-116.858;2023-04-25T09:26:20;97697.75;;;21.96;47.74
53900;BME280;40509;32.858;-116.858;2023-04-25T09:28:47;97692.50;;;21.96;47.60
53900;BME280;40509;32.858;-116.858;2023-04-25T09:31:24;97693.34;;;21.96;47.37
53900;BME280;40509;32.858;-116.858;2023-04-25T09:34:01;97692.97;;;21.91;47.40
53900;BME280;40509;32.858;-116.858;2023-04-25T09:36:30;97682.81;;;21.96;47.61
53900;BME280;40509;32.858;-116.858;2023-04-25T09:39:13;97682.16;;;21.94;47.55
53900;BME280;40509;32.858;-116.858;2023-04-25T09:41:45;97671.78;;;21.93;47.53
53900;BME280;40509;32.858;-116.858;2023-04-25T09:44:13;97674.09;;;21.96;47.51
53900;BME280;40509;32.858;-116.858;2023-04-25T09:46:42;97668.34;;;21.92;47.44
53900;BME280;40509;32.858;-116.858;2023-04-25T09:49:16;97662.25;;;21.92;47.66
53900;BME280;40509;32.858;-116.858;2023-04-25T09:52:01;97667.16;;;21.86;47.70
53900;BME280;40509;32.858;-116.858;2023-04-25T09:54:35;97662.59;;;21.88;47.67
53900;BME280;40509;32.858;-116.858;2023-04-25T09:57:16;97660.47;;;21.92;47.39
53900;BME280;40509;32.858;-116.858;2023-04-25T10:02:14;97652.44;;;21.94;47.24
53900;BME280;40509;32.858;-116.858;2023-04-25T10:04:45;97645.84;;;21.89;47.51
53900;BME280;40509;32.858;-116.858;2023-04-25T10:07:26;97647.16;;;21.85;47.48
53900;BME280;40509;32.858;-116.858;2023-04-25T10:10:03;97653.72;;;21.89;47.44
53900;BME280;40509;32.858;-116.858;2023-04-25T10:12:33;97663.56;;;21.87;47.49
53900;BME280;40509;32.858;-116.858;2023-04-25T10:15:01;97660.28;;;21.85;47.43
53900;BME280;40509;32.858;-116.858;2023-04-25T10:17:30;97664.88;;;21.83;47.54
53900;BME280;40509;32.858;-116.858;2023-04-25T10:19:58;97665.53;;;21.85;47.20
53900;BME280;40509;32.858;-116.858;2023-04-25T10:22:34;97657.31;;;21.80;47.42
53900;BME280;40509;32.858;-116.858;2023-04-25T10:25:02;97649.78;;;21.85;47.36
53900;BME280;40509;32.858;-116.858;2023-04-25T10:27:34;97649.59;;;21.79;47.38
53900;BME280;40509;32.858;-116.858;2023-04-25T10:30:10;97652.88;;;21.81;47.65
53900;BME280;40509;32.858;-116.858;2023-04-25T10:32:39;97642.53;;;21.79;47.41
53900;BME280;40509;32.858;-116.858;2023-04-25T10:35:15;97639.41;;;21.84;47.03
53900;BME280;40509;32.858;-116.858;2023-04-25T10:38:04;97633.81;;;21.79;47.53
53900;BME280;40509;32.858;-116.858;2023-04-25T10:40:33;97643.31;;;21.71;47.31
53900;BME280;40509;32.858;-116.858;2023-04-25T10:43:34;97647.25;;;21.76;47.52
53900;BME280;40509;32.858;-116.858;2023-04-25T10:46:12;97639.38;;;21.76;47.61
53900;BME280;40509;32.858;-116.858;2023-04-25T10:48:54;97644.78;;;21.74;47.36
53900;BME280;40509;32.858;-116.858;2023-04-25T10:56:25;97645.13;;;21.71;47.45
53900;BME280;40509;32.858;-116.858;2023-04-25T10:59:16;97651.34;;;21.70;47.49
53900;BME280;40509;32.858;-116.858;2023-04-25T11:01:45;97648.88;;;21.68;47.59
53900;BME280;40509;32.858;-116.858;2023-04-25T11:04:23;97653.34;;;21.68;47.65
53900;BME280;40509;32.858;-116.858;2023-04-25T11:09:23;97644.78;;;21.66;47.55
53900;BME280;40509;32.858;-116.858;2023-04-25T11:11:58;97650.88;;;21.66;47.52
53900;BME280;40509;32.858;-116.858;2023-04-25T11:14:27;97654.63;;;21.64;47.46
53900;BME280;40509;32.858;-116.858;2023-04-25T11:16:55;97656.41;;;21.63;47.57
53900;BME280;40509;32.858;-116.858;2023-04-25T11:19:23;97652.97;;;21.63;47.47
53900;BME280;40509;32.858;-116.858;2023-04-25T11:21:55;97658.41;;;21.61;47.59
53900;BME280;40509;32.858;-116.858;2023-04-25T11:24:32;97648.69;;;21.62;47.55
53900;BME280;40509;32.858;-116.858;2023-04-25T11:27:00;97653.31;;;21.60;47.41
53900;BME280;40509;32.858;-116.858;2023-04-25T11:29:32;97654.63;;;21.64;47.47
53900;BME280;40509;32.858;-116.858;2023-04-25T11:32:00;97655.44;;;21.64;47.48
53900;BME280;40509;32.858;-116.858;2023-04-25T11:34:29;97656.56;;;21.62;47.37
53900;BME280;40509;32.858;-116.858;2023-04-25T11:36:57;97661.03;;;21.61;47.49
53900;BME280;40509;32.858;-116.858;2023-04-25T11:39:25;97658.41;;;21.61;47.39
53900;BME280;40509;32.858;-116.858;2023-04-25T11:41:54;97665.59;;;21.59;47.45
53900;BME280;40509;32.858;-116.858;2023-04-25T11:44:22;97665.28;;;21.62;47.33
53900;BME280;40509;32.858;-116.858;2023-04-25T11:46:50;97658.41;;;21.61;47.49
53900;BME280;40509;32.858;-116.858;2023-04-25T11:49:17;97663.81;;;21.60;47.43
53900;BME280;40509;32.858;-116.858;2023-04-25T11:51:47;97659.84;;;21.55;47.75
53900;BME280;40509;32.858;-116.858;2023-04-25T11:54:15;97668.38;;;21.58;47.52
53900;BME280;40509;32.858;-116.858;2023-04-25T11:56:46;97670.34;;;21.55;47.48
53900;BME280;40509;32.858;-116.858;2023-04-25T11:59:13;97660.50;;;21.58;47.24
53900;BME280;40509;32.858;-116.858;2023-04-25T12:01:48;97658.56;;;21.60;47.30
53900;BME280;40509;32.858;-116.858;2023-04-25T12:04:18;97660.81;;;21.54;47.40
53900;BME280;40509;32.858;-116.858;2023-04-25T12:06:46;97659.22;;;21.62;47.07
53900;BME280;40509;32.858;-116.858;2023-04-25T12:09:16;97661.63;;;21.55;47.42
53900;BME280;40509;32.858;-116.858;2023-04-25T12:11:46;97652.41;;;21.51;47.41
53900;BME280;40509;32.858;-116.858;2023-04-25T12:14:28;97657.22;;;21.55;47.26
53900;BME280;40509;32.858;-116.858;2023-04-25T12:16:57;97648.81;;;21.52;47.21
53900;BME280;40509;32.858;-116.858;2023-04-25T12:19:26;97647.16;;;21.51;47.54
53900;BME280;40509;32.858;-116.858;2023-04-25T12:22:00;97661.13;;;21.51;47.24
53900;BME280;40509;32.858;-116.858;2023-04-25T12:24:32;97669.81;;;21.52;47.43
53900;BME280;40509;32.858;-116.858;2023-04-25T12:27:03;97678.97;;;21.48;47.40
53900;BME280;40509;32.858;-116.858;2023-04-25T12:29:33;97674.69;;;21.47;47.39
53900;BME280;40509;32.858;-116.858;2023-04-25T12:32:01;97677.84;;;21.50;47.52
53900;BME280;40509;32.858;-116.858;2023-04-25T12:34:28;97671.25;;;21.46;47.29
53900;BME280;40509;32.858;-116.858;2023-04-25T12:36:55;97667.97;;;21.44;47.68
53900;BME280;40509;32.858;-116.858;2023-04-25T12:39:24;97673.72;;;21.48;47.51
53900;BME280;40509;32.858;-116.858;2023-04-25T12:41:54;97678.13;;;21.47;47.46
53900;BME280;40509;32.858;-116.858;2023-04-25T12:44:21;97673.41;;;21.51;47.28
53900;BME280;40509;32.858;-116.858;2023-04-25T12:46:49;97672.25;;;21.45;47.51
53900;BME280;40509;32.858;-116.858;2023-04-25T12:49:16;97677.00;;;21.50;47.36
53900;BME280;40509;32.858;-116.858;2023-04-25T12:51:44;97673.91;;;21.46;47.31
53900;BME280;40509;32.858;-116.858;2023-04-25T12:54:11;97675.47;;;21.39;47.58
53900;BME280;40509;32.858;-116.858;2023-04-25T12:56:38;97671.56;;;21.43;47.55
53900;BME280;40509;32.858;-116.858;2023-04-25T12:59:06;97674.50;;;21.40;47.48
53900;BME280;40509;32.858;-116.858;2023-04-25T13:01:33;97683.06;;;21.42;47.26
53900;BME280;40509;32.858;-116.858;2023-04-25T13:04:01;97678.78;;;21.41;47.32
53900;BME280;40509;32.858;-116.858;2023-04-25T13:06:28;97683.50;;;21.37;47.45
53900;BME280;40509;32.858;-116.858;2023-04-25T13:08:57;97680.72;;;21.39;47.46
53900;BME280;40509;32.858;-116.858;2023-04-25T13:11:24;97682.53;;;21.38;47.37
53900;BME280;40509;32.858;-116.858;2023-04-25T13:13:51;97687.13;;;21.36;47.42